Merced, California
Current Conditions -  °F | °C
As of 4:14 PM on Sunday 25 Jan 2015 (Local Time) from KMCE Reporting Station
Haze Haze  
Wind Chill: 45°   Ceiling: Unl
Heat Index: 45°   Visibility: 4mi
Dew Point: 41°   Wind: 0mph
Humidity: 86%   Direction: NA
Pressure: 30.07"   Gusts: NA
Location:  37.3°N, 120.48°W
Report Text: KMCE 260014Z AUTO 00000KT 4SM BR SCT009 07/05 A3007 RMK AO2 T00720050
Loading
Personal Weather Stations






























Interactive Weather Map New forecast layout! Learn more

10-Day Weather Forecast

Advertisements
Track Severe Weather on mobile